Time;durP1;ratioP1;P1;durP2;ratioP2;P2;SDS_P1;SDS_P2;PMS_P1;PMS_P2;Temp;Humidity;BMP_temperature;BMP_pressure;BME280_temperature;BME280_humidity;BME280_pressure;Samples;Min_cycle;Max_cycle;Signal;HPM_P1;HPM_P2
2022/05/04 00:01:23;;;;;;;1.20;0.70;;;;;;;6.45;38.49;100846.91;5083441;28;20024;-69
2022/05/04 00:03:48;;;;;;;1.27;0.63;;;;;;;6.44;38.44;100840.88;5083542;28;20021;-69
2022/05/04 00:06:13;;;;;;;2.80;0.55;;;;;;;6.42;38.31;100839.97;5083710;28;20025;-71
2022/05/04 00:08:39;;;;;;;2.05;0.80;;;;;;;6.45;38.45;100852.06;5083513;28;20044;-71
2022/05/04 00:11:05;;;;;;;1.50;0.80;;;;;;;6.44;38.45;100830.56;5083261;28;20078;-70
2022/05/04 00:13:31;;;;;;;1.30;1.08;;;;;;;6.49;38.34;100840.94;5083541;28;20080;-70
2022/05/04 00:16:00;;;;;;;1.98;0.90;;;;;;;6.50;38.25;100840.09;5083510;28;20075;-71
2022/05/04 00:18:26;;;;;;;1.15;0.77;;;;;;;6.50;38.32;100844.41;5083329;28;20020;-70
2022/05/04 00:20:51;;;;;;;2.33;0.75;;;;;;;6.50;38.46;100837.50;5065318;28;20035;-70
2022/05/04 00:23:17;;;;;;;2.55;0.75;;;;;;;6.48;38.28;100833.19;5083417;28;20021;-70
2022/05/04 00:25:42;;;;;;;1.60;0.75;;;;;;;6.43;38.63;100835.69;5064970;28;20024;-70
2022/05/04 00:28:07;;;;;;;1.98;0.70;;;;;;;6.42;38.48;100837.41;5065285;28;20024;-69
2022/05/04 00:30:33;;;;;;;1.92;0.50;;;;;;;6.39;38.48;100829.63;5083315;28;20035;-70
2022/05/04 00:32:59;;;;;;;3.20;0.80;;;;;;;6.42;38.43;100841.72;5083230;28;20060;-70
2022/05/04 00:35:25;;;;;;;1.52;0.80;;;;;;;6.42;38.61;100837.41;5082973;28;20056;-69
2022/05/04 00:37:50;;;;;;;0.70;0.70;;;;;;;6.41;38.38;100835.66;5083144;28;20028;-70
2022/05/04 00:40:15;;;;;;;0.93;0.68;;;;;;;6.44;37.88;100838.28;5064906;28;20024;-70
2022/05/04 00:42:41;;;;;;;1.38;0.80;;;;;;;6.43;37.86;100834.00;5082999;28;20333;-69
2022/05/04 00:45:07;;;;;;;3.20;1.00;;;;;;;6.49;37.72;100834.91;5083295;28;20050;-69
2022/05/04 00:47:32;;;;;;;1.27;0.52;;;;;;;6.55;37.16;100841.03;5083182;28;20285;-69
2022/05/04 00:50:04;;;;;;;1.27;0.77;;;;;;;6.58;37.08;100829.91;5083045;28;20086;-70
2022/05/04 00:52:30;;;;;;;;;;;;;;;6.71;36.95;100837.84;5083333;28;20062;-69
2022/05/04 00:54:55;;;;;;;1.50;0.77;;;;;;;6.63;36.81;100837.72;5082767;28;19943;-69
2022/05/04 01:00:07;;;;;;;1.40;0.70;;;;;;;6.60;36.61;100838.53;5083171;28;20093;-69
2022/05/04 01:02:33;;;;;;;2.88;0.85;;;;;;;6.56;36.65;100836.75;5082668;28;20025;-69
2022/05/04 01:04:58;;;;;;;2.92;0.95;;;;;;;6.56;36.66;100841.91;5084848;28;20494;-71
2022/05/04 01:07:24;;;;;;;1.30;0.65;;;;;;;6.54;36.49;100848.75;5086974;28;20028;-71
2022/05/04 01:09:50;;;;;;;1.98;0.70;;;;;;;6.54;36.25;100848.75;5068546;28;20078;-69
2022/05/04 01:12:15;;;;;;;2.97;1.42;;;;;;;6.49;36.50;100840.94;5086661;28;20096;-71
2022/05/04 01:14:41;;;;;;;2.15;1.00;;;;;;;6.44;36.68;100837.41;5086803;28;20048;-71
2022/05/04 01:17:06;;;;;;;2.50;0.90;;;;;;;6.43;36.50;100846.91;5086776;28;20024;-71
2022/05/04 01:19:32;;;;;;;2.03;0.60;;;;;;;6.42;36.60;100850.28;5086765;28;20024;-70
2022/05/04 01:21:57;;;;;;;3.78;1.17;;;;;;;6.36;36.69;100839.88;5086476;28;20089;-69
2022/05/04 01:24:22;;;;;;;2.47;0.68;;;;;;;6.36;36.65;100845.03;5086439;28;20044;-69
2022/05/04 01:26:48;;;;;;;3.92;0.82;;;;;;;6.30;36.74;100844.94;5086509;28;20064;-71
2022/05/04 01:29:14;;;;;;;2.58;0.90;;;;;;;6.26;37.32;100843.16;5086661;28;20025;-70
2022/05/04 01:31:40;;;;;;;3.50;0.90;;;;;;;6.15;37.56;100836.09;5086264;28;20020;-69
2022/05/04 01:34:05;;;;;;;1.83;0.93;;;;;;;6.04;38.16;100847.91;5086406;28;20074;-71
2022/05/04 01:36:30;;;;;;;4.28;0.77;;;;;;;5.92;38.90;100843.41;5086075;28;20052;-70
2022/05/04 01:38:56;;;;;;;2.47;0.90;;;;;;;5.80;39.28;100849.19;5086420;28;20020;-71
2022/05/04 01:44:06;;;;;;;1.70;0.90;;;;;;;5.53;40.75;100850.41;5086577;28;20039;-70
2022/05/04 01:46:31;;;;;;;4.20;1.50;;;;;;;5.41;41.12;100853.63;5086314;28;20017;-71
2022/05/04 01:48:57;;;;;;;3.53;1.10;;;;;;;5.28;41.70;100860.22;5086328;28;20052;-70
2022/05/04 01:51:23;;;;;;;6.28;1.15;;;;;;;5.14;42.36;100853.09;5085786;28;20035;-71
2022/05/04 01:53:48;;;;;;;1.77;0.98;;;;;;;5.03;42.44;100852.00;5086126;28;20084;-70
2022/05/04 01:56:14;;;;;;;3.70;1.10;;;;;;;4.92;43.19;100850.03;5067816;28;20016;-71
2022/05/04 01:58:39;;;;;;;7.15;1.02;;;;;;;4.91;43.29;100855.16;5085951;28;20025;-70
2022/05/04 02:01:04;;;;;;;4.97;1.25;;;;;;;4.86;43.47;100852.47;5085892;28;20052;-70
2022/05/04 02:03:30;;;;;;;4.15;1.33;;;;;;;4.80;43.73;100852.34;5085907;28;20060;-70
2022/05/04 02:05:55;;;;;;;2.80;1.05;;;;;;;4.79;44.04;100850.63;5067828;28;20088;-71
2022/05/04 02:08:21;;;;;;;5.85;1.15;;;;;;;4.72;44.50;100847.03;5085809;28;20052;-72
2022/05/04 02:10:47;;;;;;;3.50;1.00;;;;;;;4.61;44.75;100845.91;5085474;28;20025;-71
2022/05/04 02:13:12;;;;;;;3.38;1.60;;;;;;;4.59;45.42;100851.00;5085605;28;20048;-70
2022/05/04 02:15:38;;;;;;;5.05;1.40;;;;;;;4.54;45.42;100852.59;5085202;28;20020;-70
2022/05/04 02:18:03;;;;;;;2.20;0.82;;;;;;;4.44;45.78;100848.97;5085359;28;20024;-70
2022/05/04 02:20:29;;;;;;;3.60;1.05;;;;;;;4.43;45.86;100858.38;5085564;28;20024;-70
2022/05/04 02:22:54;;;;;;;1.73;1.10;;;;;;;4.38;46.22;100854.81;5085179;28;20016;-70
2022/05/04 02:25:19;;;;;;;4.63;2.17;;;;;;;4.36;46.39;100860.75;5066954;28;20066;-70
2022/05/04 02:27:45;;;;;;;3.72;1.33;;;;;;;4.32;46.51;100859.81;5085083;28;20020;-69
2022/05/04 02:30:10;;;;;;;5.82;1.00;;;;;;;4.31;46.64;100858.06;5085032;28;20093;-69
2022/05/04 02:32:35;;;;;;;29.00;1.67;;;;;;;4.29;47.04;100852.91;5085083;28;20066;-69
2022/05/04 02:38:00;;;;;;;3.47;1.30;;;;;;;4.31;46.39;100840.09;5085307;28;20093;-69
2022/05/04 02:40:26;;;;;;;2.45;1.00;;;;;;;4.41;46.11;100849.75;5066618;28;20024;-70
2022/05/04 02:42:52;;;;;;;6.70;1.20;;;;;;;4.41;46.00;100849.75;5084884;28;20020;-70
2022/05/04 02:45:17;;;;;;;2.10;1.08;;;;;;;4.44;46.11;100844.66;5084942;28;20193;-70
2022/05/04 02:47:43;;;;;;;2.88;1.00;;;;;;;4.49;46.07;100852.50;5066689;28;20138;-69
2022/05/04 02:50:08;;;;;;;1.77;1.00;;;;;;;4.51;46.04;100853.41;5084810;28;20383;-69
2022/05/04 02:52:33;;;;;;;3.13;1.10;;;;;;;4.52;46.37;100849.16;5084502;28;20052;-70
2022/05/04 02:54:59;;;;;;;2.28;1.15;;;;;;;4.51;46.42;100844.81;5084560;28;20497;-69
2022/05/04 02:57:24;;;;;;;3.00;1.30;;;;;;;4.45;46.13;100831.00;5084685;28;20060;-71
2022/05/04 02:59:49;;;;;;;1.10;0.85;;;;;;;4.51;46.14;100842.25;5084684;28;20035;-70
2022/05/04 03:02:27;;;;;;;3.03;1.10;;;;;;;4.52;45.96;100844.00;5066451;28;20020;-70
2022/05/04 03:04:55;;;;;;;3.30;0.90;;;;;;;4.46;46.05;100830.16;5066513;28;20020;-70
2022/05/04 03:07:21;;;;;;;2.75;1.40;;;;;;;4.51;46.08;100830.25;5084533;28;20024;-70
2022/05/04 03:09:46;;;;;;;3.35;1.05;;;;;;;4.47;46.28;100828.47;5084261;28;20020;-70
2022/05/04 03:12:11;;;;;;;4.65;2.25;;;;;;;4.46;46.67;100827.59;5084467;28;20082;-71
2022/05/04 03:14:37;;;;;;;5.88;1.38;;;;;;;4.40;47.04;100824.88;5084342;28;20029;-71
2022/05/04 03:17:02;;;;;;;3.90;1.35;;;;;;;4.38;47.11;100829.09;5084337;28;20028;-71
2022/05/04 03:19:28;;;;;;;3.38;1.10;;;;;;;4.30;46.94;100817.75;5084179;28;20115;-71
2022/05/04 03:21:54;;;;;;;1.42;0.85;;;;;;;4.27;47.41;100822.81;5084058;28;20054;-70
2022/05/04 03:24:19;;;;;;;1.42;1.00;;;;;;;4.22;47.75;100818.47;5084110;28;20050;-69
2022/05/04 03:26:45;;;;;;;2.45;1.67;;;;;;;4.16;47.92;100818.31;5065335;28;20051;-70
2022/05/04 03:29:11;;;;;;;1.33;0.82;;;;;;;4.12;48.17;100819.03;5084057;28;20028;-70
2022/05/04 03:31:37;;;;;;;2.45;0.88;;;;;;;4.07;48.42;100823.22;5083956;28;20035;-70
2022/05/04 03:34:03;;;;;;;3.13;1.08;;;;;;;4.02;48.36;100810.25;5084050;28;20098;-70
2022/05/04 03:36:28;;;;;;;1.58;0.90;;;;;;;4.06;48.13;100813.75;5083802;28;20045;-70
2022/05/04 03:38:54;;;;;;;2.92;1.00;;;;;;;4.07;48.32;100810.38;5083848;28;20058;-69
2022/05/04 03:41:20;;;;;;;2.42;0.95;;;;;;;4.09;48.20;100812.13;5083664;28;20034;-69
2022/05/04 03:43:45;;;;;;;2.08;0.98;;;;;;;4.14;47.96;100814.81;5083677;28;20099;-70
2022/05/04 03:46:42;;;;;;;2.55;0.70;;;;;;;4.19;47.96;100802.09;5083766;28;20074;-70
2022/05/04 03:49:08;;;;;;;2.50;1.08;;;;;;;4.20;47.61;100796.13;5057502;28;20040;-70
2022/05/04 03:51:34;;;;;;;3.25;0.95;;;;;;;4.29;47.72;100809.19;5083590;28;20080;-70
2022/05/04 03:53:59;;;;;;;2.80;1.00;;;;;;;4.34;47.58;100811.88;5083867;28;20027;-70
2022/05/04 03:56:24;;;;;;;2.80;1.05;;;;;;;4.38;47.39;100805.97;5083177;28;20021;-69
2022/05/04 03:58:50;;;;;;;4.03;1.10;;;;;;;4.41;47.29;100794.91;5065417;28;20388;-69
2022/05/04 04:01:18;;;;;;;4.35;1.00;;;;;;;4.52;47.35;100810.56;5065461;28;20028;-69
2022/05/04 04:03:43;;;;;;;2.60;0.93;;;;;;;4.57;46.74;100803.81;5083534;28;20369;-69
2022/05/04 04:06:08;;;;;;;2.10;0.73;;;;;;;4.67;46.83;100810.91;5083393;28;20024;-66
2022/05/04 04:08:34;;;;;;;6.50;1.25;;;;;;;4.75;46.87;100805.06;5083388;28;20024;-68
2022/05/04 04:11:00;;;;;;;2.63;0.98;;;;;;;4.81;46.80;100803.50;5082887;28;20024;-67
2022/05/04 04:13:26;;;;;;;3.28;1.00;;;;;;;4.93;46.91;100802.03;5082798;28;20464;-68
2022/05/04 04:15:54;;;;;;;2.95;1.00;;;;;;;5.06;46.92;100803.16;5083194;28;20028;-67
2022/05/04 04:18:23;;;;;;;6.03;0.98;;;;;;;5.19;46.92;100804.28;5083087;28;20273;-68
2022/05/04 04:23:33;;;;;;;2.97;1.13;;;;;;;5.94;46.83;100796.19;5083201;28;20027;-68
2022/05/04 04:26:00;;;;;;;2.75;1.00;;;;;;;6.50;46.36;100800.56;5082758;28;20020;-69
2022/05/04 04:28:25;;;;;;;3.00;1.15;;;;;;;7.07;45.66;100798.75;5083049;28;20024;-68
2022/05/04 04:30:51;;;;;;;3.63;1.33;;;;;;;7.74;44.82;100792.56;5082947;28;20020;-66
2022/05/04 04:33:16;;;;;;;2.95;0.85;;;;;;;8.21;43.09;100787.78;5082897;28;20036;-73
2022/05/04 04:35:42;;;;;;;3.05;0.93;;;;;;;8.63;42.01;100788.97;5064603;28;20042;-71
2022/05/04 04:38:07;;;;;;;6.18;1.13;;;;;;;8.82;41.19;100789.03;5064514;28;20024;-70
2022/05/04 04:40:34;;;;;;;3.90;1.05;;;;;;;9.00;40.91;100782.22;5082712;28;20021;-70
2022/05/04 04:43:02;;;;;;;4.03;1.13;;;;;;;9.50;40.44;100784.97;5082682;28;20123;-70
2022/05/04 04:45:31;;;;;;;5.05;1.00;;;;;;;9.94;38.28;100787.63;5082694;28;20047;-70
2022/05/04 04:47:56;;;;;;;3.10;1.00;;;;;;;10.18;37.68;100778.97;5064828;28;20027;-71
2022/05/04 04:50:25;;;;;;;3.10;1.05;;;;;;;10.83;38.25;100787.53;5082948;28;20020;-70
2022/05/04 04:52:50;;;;;;;4.72;0.90;;;;;;;11.52;36.30;100781.13;5082766;28;20732;-72
2022/05/04 04:55:16;;;;;;;1.30;0.75;;;;;;;12.12;35.86;100781.56;5064513;28;20024;-70
2022/05/04 04:57:41;;;;;;;4.55;1.70;;;;;;;12.55;34.81;100778.56;5082364;28;20025;-70
2022/05/04 05:00:07;;;;;;;5.03;0.88;;;;;;;13.07;33.12;100778.84;5082355;28;20032;-71
2022/05/04 05:02:35;;;;;;;2.58;1.00;;;;;;;13.28;33.55;100788.13;5082492;28;20024;-70
2022/05/04 05:05:02;;;;;;;4.03;0.90;;;;;;;13.51;32.51;100776.53;5082160;28;20066;-69
2022/05/04 05:07:27;;;;;;;3.78;0.63;;;;;;;13.83;32.79;100779.53;5082188;28;20017;-71
2022/05/04 05:09:52;;;;;;;3.88;1.60;;;;;;;13.79;31.08;100788.28;5082199;28;20057;-70
2022/05/04 05:12:18;;;;;;;2.08;0.90;;;;;;;13.52;31.55;100791.31;5082305;28;20032;-70
2022/05/04 05:17:28;;;;;;;2.60;1.00;;;;;;;12.70;31.12;100801.84;5082354;28;20027;-71
2022/05/04 05:19:53;;;;;;;3.95;0.90;;;;;;;12.06;31.08;100802.41;5082106;28;20017;-73
2022/05/04 05:22:18;;;;;;;3.22;0.90;;;;;;;11.26;32.20;100804.69;5082058;28;20023;-71
2022/05/04 05:24:44;;;;;;;3.05;1.65;;;;;;;10.59;33.17;100789.34;5082019;28;20088;-71
2022/05/04 05:27:09;;;;;;;3.05;0.93;;;;;;;10.19;34.38;100805.78;5082197;28;20146;-70
2022/05/04 05:29:35;;;;;;;2.58;0.98;;;;;;;10.15;35.00;100813.56;5082091;28;20077;-70
2022/05/04 05:32:00;;;;;;;1.30;0.90;;;;;;;10.32;35.45;100804.91;5082077;28;20017;-71
2022/05/04 05:34:28;;;;;;;3.00;0.73;;;;;;;10.58;35.45;100809.22;5082195;28;20376;-70
2022/05/04 05:36:54;;;;;;;3.83;1.00;;;;;;;11.10;34.98;100815.13;5081707;28;20048;-70
2022/05/04 05:39:19;;;;;;;5.55;1.08;;;;;;;11.43;34.81;100807.19;5081754;28;20030;-70
2022/05/04 05:41:44;;;;;;;3.55;1.02;;;;;;;11.73;34.29;100800.06;5081324;28;20029;-71
2022/05/04 05:44:10;;;;;;;4.57;1.10;;;;;;;12.17;34.55;100809.31;5082057;28;20028;-70
2022/05/04 05:46:35;;;;;;;3.58;0.90;;;;;;;12.74;33.88;100805.28;5081968;28;20017;-70
2022/05/04 05:49:00;;;;;;;2.65;1.08;;;;;;;13.11;33.35;100799.66;5081993;28;20028;-70
2022/05/04 05:51:26;;;;;;;7.82;1.10;;;;;;;13.38;33.14;100802.78;5084265;28;20025;-71
2022/05/04 05:53:51;;;;;;;3.28;1.30;;;;;;;13.73;32.70;100797.97;5085367;28;20024;-71
2022/05/04 05:56:16;;;;;;;3.55;0.93;;;;;;;13.94;32.90;100795.03;5085215;28;20032;-72
2022/05/04 05:58:42;;;;;;;2.10;1.00;;;;;;;14.44;32.45;100799.41;5085403;28;20028;-72
2022/05/04 06:01:08;;;;;;;2.03;1.10;;;;;;;14.70;32.01;100792.81;5085424;28;20025;-70
2022/05/04 06:03:33;;;;;;;5.43;1.73;;;;;;;14.81;31.56;100793.50;5085268;28;20024;-71
2022/05/04 06:05:58;;;;;;;2.78;1.13;;;;;;;14.78;31.91;100775.22;5085128;28;20020;-72
2022/05/04 06:08:24;;;;;;;3.22;1.17;;;;;;;15.16;31.88;100787.59;5085374;28;20086;-71
2022/05/04 06:10:49;;;;;;;3.78;1.13;;;;;;;15.29;31.53;100778.56;5084955;28;20020;-71
2022/05/04 06:13:14;;;;;;;3.85;1.35;;;;;;;15.01;31.67;100787.00;5084885;28;20136;-71
2022/05/04 06:15:40;;;;;;;4.50;1.50;;;;;;;14.51;32.16;100790.56;5085121;28;20024;-71
2022/05/04 06:18:05;;;;;;;3.78;1.30;;;;;;;14.19;33.03;100781.53;5085140;28;20033;-74
2022/05/04 06:20:31;;;;;;;6.28;1.48;;;;;;;13.70;33.99;100781.47;5085228;28;20025;-73
2022/05/04 06:22:57;;;;;;;8.30;2.30;;;;;;;13.15;35.03;100774.38;5084962;28;20021;-72
2022/05/04 06:25:22;;;;;;;5.22;1.70;;;;;;;13.01;35.61;100774.56;5084816;28;20028;-71
2022/05/04 06:27:47;;;;;;;2.15;1.40;;;;;;;12.84;36.37;100777.41;5084910;28;20055;-73
2022/05/04 06:35:40;;;;;;;3.47;1.70;;;;;;;11.72;39.24;100779.28;5084466;28;20067;-72
2022/05/04 06:38:06;;;;;;;4.97;1.67;;;;;;;11.40;39.77;100760.41;5084837;28;20081;-72
2022/05/04 06:40:31;;;;;;;7.38;2.03;;;;;;;11.38;40.61;100782.94;5084336;28;20110;-73
2022/05/04 06:42:57;;;;;;;5.70;2.25;;;;;;;11.22;40.86;100777.84;5066220;28;20035;-71
2022/05/04 06:45:23;;;;;;;3.67;1.63;;;;;;;11.02;41.66;100770.16;5084634;28;20059;-73
2022/05/04 06:47:48;;;;;;;3.00;1.80;;;;;;;10.94;42.10;100790.97;5084458;28;20081;-71
2022/05/04 06:50:13;;;;;;;5.30;1.77;;;;;;;10.90;42.58;100787.50;5084365;28;20070;-71
2022/05/04 06:52:39;;;;;;;8.57;1.88;;;;;;;10.84;42.83;100789.25;5083876;28;20343;-72
2022/05/04 06:55:08;;;;;;;7.40;2.13;;;;;;;10.94;43.22;100793.56;5065821;28;20020;-71
2022/05/04 06:57:34;;;;;;;4.47;1.67;;;;;;;11.24;42.86;100783.03;5083962;28;20035;-73
2022/05/04 07:00:04;;;;;;;4.75;1.65;;;;;;;11.20;42.93;100786.53;5084048;28;20035;-72
2022/05/04 07:02:31;;;;;;;5.90;2.00;;;;;;;11.10;43.10;100785.69;5082921;28;20021;-72
2022/05/04 07:04:56;;;;;;;5.70;1.95;;;;;;;11.27;43.68;100796.00;5084021;28;20017;-71
2022/05/04 07:07:21;;;;;;;8.55;1.90;;;;;;;11.94;43.11;100802.53;5084097;28;20043;-72
2022/05/04 07:09:46;;;;;;;3.50;1.85;;;;;;;12.56;41.84;100804.59;5083760;28;20074;-71
2022/05/04 07:12:12;;;;;;;4.55;1.90;;;;;;;13.02;41.27;100798.00;5084082;28;20100;-71
2022/05/04 07:14:37;;;;;;;4.82;1.83;;;;;;;13.70;40.24;100802.34;5084037;28;20118;-73
2022/05/04 07:17:03;;;;;;;7.50;2.05;;;;;;;14.04;39.07;100801.81;5084311;28;20021;-72
2022/05/04 07:19:28;;;;;;;7.47;2.15;;;;;;;14.30;38.75;100799.63;5083822;28;20020;-70
2022/05/04 07:21:53;;;;;;;7.32;2.22;;;;;;;14.73;38.21;100798.84;5083789;28;20054;-72
2022/05/04 07:24:19;;;;;;;14.60;2.10;;;;;;;15.30;37.65;100802.97;5083691;28;20085;-73
2022/05/04 07:26:44;;;;;;;8.18;2.00;;;;;;;15.76;36.54;100793.19;5083382;28;20032;-70
2022/05/04 07:29:10;;;;;;;3.22;1.45;;;;;;;16.05;35.84;100794.28;5083750;28;20037;-71
2022/05/04 07:31:36;;;;;;;6.20;1.50;;;;;;;16.19;34.94;100804.41;5083708;28;20044;-71
2022/05/04 07:34:01;;;;;;;3.17;1.58;;;;;;;16.05;35.22;100802.16;5083580;28;20446;-71
2022/05/04 07:36:27;;;;;;;4.53;1.52;;;;;;;16.12;35.18;100794.97;5083382;28;20048;-71
2022/05/04 07:38:52;;;;;;;10.15;1.80;;;;;;;16.22;34.80;100803.44;5083495;28;20031;-72
2022/05/04 07:44:02;;;;;;;5.38;1.73;;;;;;;15.66;35.62;100796.91;5083329;28;20027;-72
2022/05/04 07:46:27;;;;;;;6.07;1.60;;;;;;;16.09;35.22;100800.28;5083527;28;20103;-71
2022/05/04 07:48:54;;;;;;;3.13;1.48;;;;;;;16.26;34.67;100801.63;5083367;28;20024;-72
2022/05/04 07:51:19;;;;;;;4.03;1.70;;;;;;;16.07;35.04;100802.09;5083421;28;20013;-72
2022/05/04 07:53:45;;;;;;;4.90;2.30;;;;;;;16.25;35.02;100807.75;5064954;28;20047;-73
2022/05/04 07:56:10;;;;;;;7.13;1.58;;;;;;;16.20;34.91;100807.88;5082926;28;20128;-71
2022/05/04 07:58:35;;;;;;;2.58;1.50;;;;;;;15.76;35.33;100781.88;5083164;28;20043;-71
2022/05/04 08:06:28;;;;;;;7.65;1.85;;;;;;;16.21;35.52;100801.75;5083097;28;20542;-71
2022/05/04 08:08:54;;;;;;;5.78;1.90;;;;;;;16.51;35.63;100814.94;5082764;28;20024;-70
2022/05/04 08:11:19;;;;;;;7.88;1.80;;;;;;;16.83;35.20;100812.31;5082586;28;20040;-71
2022/05/04 08:13:44;;;;;;;4.43;1.70;;;;;;;17.11;34.28;100815.97;5064257;28;20366;-70
2022/05/04 08:16:11;;;;;;;3.92;1.77;;;;;;;17.16;34.25;100814.91;5082736;28;20384;-71
2022/05/04 08:18:40;;;;;;;3.28;1.40;;;;;;;17.30;33.99;100806.63;5082992;28;20023;-71
2022/05/04 08:21:06;;;;;;;4.43;1.83;;;;;;;17.71;34.08;100815.88;5082829;28;20029;-71
2022/05/04 08:23:31;;;;;;;6.50;1.92;;;;;;;17.99;32.88;100811.50;5082966;28;20027;-72
2022/05/04 08:25:56;;;;;;;5.18;1.55;;;;;;;18.19;33.08;100819.63;5082475;28;20021;-72
2022/05/04 08:28:22;;;;;;;2.92;1.50;;;;;;;18.73;32.17;100810.75;5082928;28;20032;-71
2022/05/04 08:30:47;;;;;;;4.07;1.25;;;;;;;19.11;31.75;100819.91;5082718;28;20027;-71
2022/05/04 08:33:12;;;;;;;5.30;1.67;;;;;;;19.60;31.21;100817.16;5082484;28;20511;-71
2022/05/04 08:35:38;;;;;;;8.40;1.42;;;;;;;20.19;30.65;100811.31;5082515;28;20495;-71
2022/05/04 08:38:03;;;;;;;4.60;1.80;;;;;;;20.79;29.50;100815.75;5082608;28;20027;-71
2022/05/04 08:40:29;;;;;;;3.22;1.80;;;;;;;20.98;29.16;100812.28;5064130;28;20032;-71
2022/05/04 08:42:57;;;;;;;6.40;1.73;;;;;;;21.43;28.62;100801.41;5082142;28;20027;-71
2022/05/04 08:45:23;;;;;;;5.10;2.00;;;;;;;22.17;27.98;100809.31;5082568;28;20040;-69
2022/05/04 08:47:50;;;;;;;8.05;1.60;;;;;;;22.88;26.37;100822.41;5082502;28;20078;-70
2022/05/04 08:50:17;;;;;;;4.05;1.60;;;;;;;22.71;26.39;100805.69;5064433;28;20052;-70
2022/05/04 08:52:51;;;;;;;4.75;1.33;;;;;;;22.11;25.92;100802.53;5082233;28;20047;-71
2022/05/04 08:55:17;;;;;;;12.65;2.03;;;;;;;21.48;26.93;100809.13;5082401;28;20465;-71
2022/05/04 08:57:43;;;;;;;4.97;2.05;;;;;;;20.92;26.90;100804.66;5064448;28;20040;-70
2022/05/04 09:00:10;;;;;;;4.35;1.60;;;;;;;19.86;28.50;100804.72;5082378;28;20033;-70
2022/05/04 09:02:37;;;;;;;2.92;1.45;;;;;;;18.98;30.13;100806.38;5064299;28;20108;-72
2022/05/04 09:05:33;;;;;;;3.53;1.45;;;;;;;18.56;31.28;100819.25;5082334;28;20034;-71
2022/05/04 09:07:58;;;;;;;3.67;1.83;;;;;;;18.82;31.25;100806.91;5065678;28;20047;-70
2022/05/04 09:10:27;;;;;;;3.92;1.73;;;;;;;19.31;31.31;100806.84;5082125;28;20040;-70
2022/05/04 09:12:54;;;;;;;6.03;1.65;;;;;;;20.28;30.77;100802.16;5082029;28;20229;-68
2022/05/04 09:15:23;;;;;;;4.85;2.30;;;;;;;21.36;29.35;100795.56;5082314;28;20129;-69
2022/05/04 09:17:57;;;;;;;5.95;2.00;;;;;;;22.19;28.56;100803.94;5082162;28;20384;-69
2022/05/04 09:20:45;;;;;;;5.80;2.10;;;;;;;23.02;27.81;100804.00;5082212;28;20135;-70
2022/05/04 09:23:32;;;;;;;4.18;1.65;;;;;;;23.87;26.11;100788.72;5081981;28;20086;-71
2022/05/04 09:26:07;;;;;;;5.75;2.10;;;;;;;24.47;25.51;100794.91;5083584;28;20052;-71
2022/05/04 09:28:34;;;;;;;3.75;2.00;;;;;;;24.69;25.77;100795.38;5085947;28;20035;-71
2022/05/04 09:31:05;;;;;;;4.57;2.13;;;;;;;24.91;25.21;100792.28;5085882;28;20021;-71
2022/05/04 09:33:32;;;;;;;5.80;2.13;;;;;;;24.82;24.50;100798.13;5085877;28;20059;-71
2022/05/04 09:35:59;;;;;;;4.78;2.40;;;;;;;24.10;26.02;100783.84;5085725;28;20060;-71
2022/05/04 09:46:49;;;;;;;6.20;2.90;;;;;;;22.22;29.33;100799.34;5023254;28;20037;-72
2022/05/04 09:49:16;;;;;;;7.35;3.08;;;;;;;22.35;29.71;100804.00;5023037;28;20050;-72
2022/05/04 09:51:53;;;;;;;9.82;2.83;;;;;;;22.53;29.59;100796.88;5023057;28;20030;-72
2022/05/04 09:54:27;;;;;;;5.97;2.72;;;;;;;23.02;29.17;100804.00;5023013;28;20037;-72
2022/05/04 09:56:55;;;;;;;5.75;3.13;;;;;;;23.13;28.96;100802.56;5022736;28;20037;-72
2022/05/04 09:59:26;;;;;;;7.60;3.05;;;;;;;22.96;29.15;100788.44;5022874;28;20040;-71
2022/05/04 10:01:54;;;;;;;5.47;3.00;;;;;;;23.02;29.15;100792.53;5022746;28;20046;-71
2022/05/04 10:04:20;;;;;;;4.68;2.80;;;;;;;23.03;28.58;100786.34;5022770;28;20033;-71
2022/05/04 10:06:47;;;;;;;6.65;3.80;;;;;;;22.64;29.03;100788.41;5022830;28;20140;-72
2022/05/04 10:09:13;;;;;;;9.93;3.60;;;;;;;22.40;29.90;100786.09;5022764;28;20052;-70
2022/05/04 10:11:39;;;;;;;6.20;3.40;;;;;;;21.81;30.74;100786.44;5022288;28;20025;-70
2022/05/04 10:14:10;;;;;;;10.90;3.95;;;;;;;21.20;31.40;100782.25;5022390;28;20049;-71
2022/05/04 10:16:59;;;;;;;5.83;3.57;;;;;;;20.45;32.98;100795.28;5022447;28;20108;-70
2022/05/04 10:19:53;;;;;;;10.85;3.67;;;;;;;19.75;35.21;100783.22;5019101;28;20029;-71
2022/05/04 10:22:27;;;;;;;7.60;3.58;;;;;;;19.39;36.69;100789.91;5084666;28;20016;-70
2022/05/04 10:24:56;;;;;;;6.75;3.38;;;;;;;19.07;37.67;100782.34;5084547;28;20027;-70
2022/05/04 10:27:23;;;;;;;9.75;3.17;;;;;;;18.85;37.60;100783.13;5084777;28;20024;-71
2022/05/04 10:32:48;;;;;;;8.23;3.28;;;;;;;18.43;37.76;100784.66;5084701;28;20414;-70
2022/05/04 10:35:17;;;;;;;5.43;2.35;;;;;;;18.14;38.27;100791.75;5084290;28;20068;-70
2022/05/04 10:37:58;;;;;;;6.80;2.78;;;;;;;17.87;38.49;100787.38;5084271;28;20025;-71
2022/05/04 10:40:30;;;;;;;7.07;2.40;;;;;;;17.56;39.37;100772.59;5066686;28;20045;-71
2022/05/04 10:42:57;;;;;;;6.22;2.60;;;;;;;17.29;39.76;100783.06;5084201;28;20023;-71
2022/05/04 10:45:28;;;;;;;7.13;2.70;;;;;;;17.07;40.56;100788.91;5066298;28;20135;-73
2022/05/04 10:48:12;;;;;;;9.15;3.85;;;;;;;16.83;41.59;100784.34;5084428;28;20029;-70
2022/05/04 10:50:51;;;;;;;6.65;2.47;;;;;;;16.80;41.54;100780.94;5066436;28;20051;-69
2022/05/04 10:53:25;;;;;;;6.63;2.05;;;;;;;16.78;40.46;100788.88;5084035;28;20020;-69
2022/05/04 10:56:05;;;;;;;7.07;2.80;;;;;;;16.71;41.46;100785.56;5084097;28;20048;-70
2022/05/04 10:58:50;;;;;;;13.18;3.17;;;;;;;16.71;42.35;100777.69;5084216;28;20151;-71
2022/05/04 11:01:26;;;;;;;7.28;2.70;;;;;;;16.86;42.54;100775.53;5072947;28;20115;-71
2022/05/04 11:04:15;;;;;;;10.77;3.42;;;;;;;16.91;43.32;100772.78;5083765;28;20068;-72
2022/05/04 11:06:46;;;;;;;8.32;3.28;;;;;;;16.81;44.01;100777.41;5084004;28;20024;-71
2022/05/04 11:09:14;;;;;;;10.18;3.60;;;;;;;16.75;44.22;100769.72;5083905;28;20024;-71
2022/05/04 11:11:42;;;;;;;11.38;3.22;;;;;;;16.85;44.37;100772.03;5083575;28;20220;-72
2022/05/04 11:14:09;;;;;;;8.52;2.70;;;;;;;16.98;42.91;100769.91;5083718;28;20119;-71
2022/05/04 11:16:35;;;;;;;5.70;2.28;;;;;;;17.03;42.02;100763.69;5083816;28;20070;-71
2022/05/04 11:19:04;;;;;;;6.90;2.53;;;;;;;17.06;40.78;100768.84;5065737;28;20032;-71
2022/05/04 11:21:31;;;;;;;10.07;2.90;;;;;;;17.01;40.92;100769.00;5083614;28;20024;-71
2022/05/04 11:24:01;;;;;;;7.07;3.65;;;;;;;16.85;42.88;100763.34;5083645;28;20070;-71
2022/05/04 11:26:36;;;;;;;8.75;4.00;;;;;;;16.78;43.30;100762.66;5083359;28;20020;-71
2022/05/04 11:29:06;;;;;;;11.02;4.60;;;;;;;16.83;43.35;100754.66;5083612;28;20035;-72
2022/05/04 11:31:32;;;;;;;8.07;3.67;;;;;;;16.89;42.99;100756.22;5083747;28;20032;-71
2022/05/04 11:33:57;;;;;;;10.43;3.30;;;;;;;16.92;42.02;100761.38;5082992;28;20051;-70
2022/05/04 11:36:22;;;;;;;9.23;3.20;;;;;;;16.92;38.70;100754.38;5083268;28;20044;-70
2022/05/04 11:38:49;;;;;;;8.52;2.42;;;;;;;16.77;38.18;100760.94;5083372;28;20097;-71
2022/05/04 11:41:15;;;;;;;6.93;2.97;;;;;;;16.69;38.62;100755.88;5084111;28;20028;-71
2022/05/04 11:43:42;;;;;;;9.80;3.60;;;;;;;16.66;40.61;100757.75;5083543;28;20028;-71
2022/05/04 11:46:12;;;;;;;10.18;3.70;;;;;;;16.69;42.22;100752.44;5083165;28;20103;-71
2022/05/04 11:48:42;;;;;;;9.98;3.35;;;;;;;16.50;42.03;100752.94;5064226;28;20413;-71
2022/05/04 11:51:08;;;;;;;10.90;2.95;;;;;;;16.44;41.95;100760.97;5065010;28;20552;-71
2022/05/04 11:53:36;;;;;;;8.10;2.58;;;;;;;16.54;40.68;100762.44;5083051;28;20036;-69
2022/05/04 11:56:03;;;;;;;10.30;2.70;;;;;;;16.52;38.70;100753.75;5082847;28;20031;-70
2022/05/04 11:58:30;;;;;;;9.00;3.13;;;;;;;16.44;39.11;100753.09;5083180;28;20044;-70
2022/05/04 12:00:56;;;;;;;6.95;2.60;;;;;;;16.42;39.71;100760.16;5082829;28;20033;-70
2022/05/04 12:03:23;;;;;;;8.00;2.78;;;;;;;16.44;37.41;100753.09;5081634;28;20032;-70
2022/05/04 12:05:50;;;;;;;6.10;2.63;;;;;;;16.32;39.10;100749.94;5083086;28;20024;-70
2022/05/04 12:08:18;;;;;;;10.07;2.97;;;;;;;16.10;39.81;100753.09;5064637;28;20025;-70